Aérodrome :
LOGIN :

S'inscrire | Disclaimer

   EN    FR    IT 

 










Légende :    VFR   VFR Marginal   IFR   IFR Intensif   IFR Très Intensif
Visi : 
Plafond : 
>= 8 km
>= 3000ft
5 à 8 km
1000 à 3000 ft
1500m à 5 km
500 à 1000 ft
800 à 1500m
200 à 500 ft
< 800m
< 200 ft
Symboles :   Orages  Brouillard  Fortes neiges  Fortes précipitations  Vent > 20 kt
SIGMETs :   Divers  Orages  Givrage  Turbulence  Onde Orograph.  Cendres Volcan.







- Altitude de l'aérodrome : 2776 ft
- Code IATA : VLL


LEVD - Valladolid

DERNIER METAR :
  • 221900Z 27003KT CAVOK 24/04 Q1026

METARs EXPIRÉS :
  • 221830Z 28003KT CAVOK 25/04 Q1025
  • 221800Z VRB02KT CAVOK 27/04 Q1025
  • 221730Z 33003KT 270V020 CAVOK 28/05 Q1025
  • 221700Z 26003KT CAVOK 29/05 Q1025
  • 221630Z 25005KT 190V280 CAVOK 29/04 Q1025

TAF TAF LEVD
Valide du 22 à 18h jusqu'au 23 à 18h UTC


221700Z 2218/2318 VRB04KT CAVOK TX33/2315Z TN14/2306Z
PROB40
TEMPO 2301/2308 05008KT
PROB40
TEMPO 2315/2318 35007KT
Pas de NOTAMs connus pour ce terrain.



MET'MAP, la Météo Aéronautique d'un coup d'oeil ! - Copyright ORBIFLY Décembre 2007 - Disclaimer

ORBIFLY MET'MAP TEAM :

Programmation & Développement : Alexandra Zaïnal
Conception & Développement : Baudouin d'Aumeries
Co-Programmation & Développement : Marc-Olivier Méhu
Soutien technique & logistique : Manuel Goepfert

Contact : metmap@orbifly.com




SOURCES & CREDITS :

   NOAA